Terminal Aerodrome Forecast
Issued by NWS

Home | Current Version | Previous Version | Text Only | Print | Product List | Glossary On
Versions: 1 2 3 4 5 6 7 8 9 10 11 12 13 14 15
000
FTAK31 PAJN 231700
TAFASI
TAF
PASI 231740Z 2318/2418 VRB03KT P6SM SCT025 OVC120
     FM232200 24006KT P6SM VCSH SCT020 BKN040 OVC060
     FM240400 VRB04KT P6SM -RA SCT015 BKN025 OVC050
     FM240900 VRB03KT P6SM VCSH SCT025 OVC050
     FM241200 VRB03KT P6SM VCSH SCT020 BKN040 OVC060=

USA.gov is the U.S. government's official web portal to all federal, state and local government web resources and services.